sensor_id;sensor_type;location;lat;lon;timestamp;temperature;humidity
53978;DHT22;39886;47.984;-1.586;2023-02-27T00:00:55;18.40;44.10
53978;DHT22;39886;47.984;-1.586;2023-02-27T00:03:22;18.40;43.90
53978;DHT22;39886;47.984;-1.586;2023-02-27T00:05:47;18.40;43.90
53978;DHT22;39886;47.984;-1.586;2023-02-27T00:08:13;18.40;44.00
53978;DHT22;39886;47.984;-1.586;2023-02-27T00:10:39;18.40;43.90
53978;DHT22;39886;47.984;-1.586;2023-02-27T00:13:05;18.50;43.90
53978;DHT22;39886;47.984;-1.586;2023-02-27T00:15:31;18.50;43.90
53978;DHT22;39886;47.984;-1.586;2023-02-27T00:17:58;18.40;43.90
53978;DHT22;39886;47.984;-1.586;2023-02-27T00:20:25;18.50;43.90
53978;DHT22;39886;47.984;-1.586;2023-02-27T00:22:51;18.50;43.90
53978;DHT22;39886;47.984;-1.586;2023-02-27T00:25:17;18.50;43.90
53978;DHT22;39886;47.984;-1.586;2023-02-27T00:27:43;18.50;43.90
53978;DHT22;39886;47.984;-1.586;2023-02-27T00:30:11;18.50;44.50
53978;DHT22;39886;47.984;-1.586;2023-02-27T00:32:37;18.50;43.80
53978;DHT22;39886;47.984;-1.586;2023-02-27T00:35:04;18.50;43.80
53978;DHT22;39886;47.984;-1.586;2023-02-27T00:37:31;18.50;43.80
53978;DHT22;39886;47.984;-1.586;2023-02-27T00:39:56;18.60;43.80
53978;DHT22;39886;47.984;-1.586;2023-02-27T00:42:22;18.60;43.90
53978;DHT22;39886;47.984;-1.586;2023-02-27T00:44:48;18.60;43.80
53978;DHT22;39886;47.984;-1.586;2023-02-27T00:47:13;18.50;43.70
53978;DHT22;39886;47.984;-1.586;2023-02-27T00:49:39;18.60;43.80
53978;DHT22;39886;47.984;-1.586;2023-02-27T00:52:05;18.60;43.80
53978;DHT22;39886;47.984;-1.586;2023-02-27T00:54:31;18.60;43.80
53978;DHT22;39886;47.984;-1.586;2023-02-27T00:56:56;18.60;43.70
53978;DHT22;39886;47.984;-1.586;2023-02-27T00:59:22;18.60;43.70
53978;DHT22;39886;47.984;-1.586;2023-02-27T01:01:48;18.60;43.60
53978;DHT22;39886;47.984;-1.586;2023-02-27T01:04:14;18.60;43.70
53978;DHT22;39886;47.984;-1.586;2023-02-27T01:06:39;18.60;43.70
53978;DHT22;39886;47.984;-1.586;2023-02-27T01:09:05;18.60;43.60
53978;DHT22;39886;47.984;-1.586;2023-02-27T01:11:31;18.70;43.70
53978;DHT22;39886;47.984;-1.586;2023-02-27T01:13:57;18.70;43.70
53978;DHT22;39886;47.984;-1.586;2023-02-27T01:16:23;18.70;43.60
53978;DHT22;39886;47.984;-1.586;2023-02-27T01:18:49;18.60;43.60
53978;DHT22;39886;47.984;-1.586;2023-02-27T01:21:15;18.70;43.60
53978;DHT22;39886;47.984;-1.586;2023-02-27T01:23:41;18.70;43.60
53978;DHT22;39886;47.984;-1.586;2023-02-27T01:26:06;18.70;43.60
53978;DHT22;39886;47.984;-1.586;2023-02-27T01:28:32;18.70;43.50
53978;DHT22;39886;47.984;-1.586;2023-02-27T01:31:17;18.70;43.60
53978;DHT22;39886;47.984;-1.586;2023-02-27T01:33:43;18.70;43.60
53978;DHT22;39886;47.984;-1.586;2023-02-27T01:36:09;18.70;43.60
53978;DHT22;39886;47.984;-1.586;2023-02-27T01:38:35;18.70;43.60
53978;DHT22;39886;47.984;-1.586;2023-02-27T01:41:01;18.70;43.50
53978;DHT22;39886;47.984;-1.586;2023-02-27T01:43:27;18.70;43.50
53978;DHT22;39886;47.984;-1.586;2023-02-27T01:45:53;18.70;43.50
53978;DHT22;39886;47.984;-1.586;2023-02-27T01:50:49;18.70;43.50
53978;DHT22;39886;47.984;-1.586;2023-02-27T01:53:16;18.70;43.50
53978;DHT22;39886;47.984;-1.586;2023-02-27T01:55:42;18.70;43.40
53978;DHT22;39886;47.984;-1.586;2023-02-27T01:58:10;18.70;43.50
53978;DHT22;39886;47.984;-1.586;2023-02-27T02:00:37;18.80;44.20
53978;DHT22;39886;47.984;-1.586;2023-02-27T02:03:07;18.70;43.50
53978;DHT22;39886;47.984;-1.586;2023-02-27T02:05:36;18.70;43.40
53978;DHT22;39886;47.984;-1.586;2023-02-27T02:08:02;18.80;43.50
53978;DHT22;39886;47.984;-1.586;2023-02-27T02:10:29;18.80;43.50
53978;DHT22;39886;47.984;-1.586;2023-02-27T02:12:55;18.80;43.40
53978;DHT22;39886;47.984;-1.586;2023-02-27T02:15:38;18.80;43.40
53978;DHT22;39886;47.984;-1.586;2023-02-27T02:18:23;18.80;43.40
53978;DHT22;39886;47.984;-1.586;2023-02-27T02:21:01;18.80;43.40
53978;DHT22;39886;47.984;-1.586;2023-02-27T02:35:32;18.80;43.40
53978;DHT22;39886;47.984;-1.586;2023-02-27T02:46:30;18.80;43.40
53978;DHT22;39886;47.984;-1.586;2023-02-27T02:52:09;18.80;43.30
53978;DHT22;39886;47.984;-1.586;2023-02-27T02:54:44;18.80;43.30
53978;DHT22;39886;47.984;-1.586;2023-02-27T02:57:24;18.80;43.40
53978;DHT22;39886;47.984;-1.586;2023-02-27T03:00:02;18.80;43.40
53978;DHT22;39886;47.984;-1.586;2023-02-27T03:02:36;18.80;43.30
53978;DHT22;39886;47.984;-1.586;2023-02-27T03:05:20;18.80;43.30
53978;DHT22;39886;47.984;-1.586;2023-02-27T03:08:02;18.80;43.30
53978;DHT22;39886;47.984;-1.586;2023-02-27T03:10:42;18.80;43.30
53978;DHT22;39886;47.984;-1.586;2023-02-27T03:13:34;18.80;43.20
53978;DHT22;39886;47.984;-1.586;2023-02-27T03:16:13;18.80;43.30
53978;DHT22;39886;47.984;-1.586;2023-02-27T03:18:52;18.80;43.30
53978;DHT22;39886;47.984;-1.586;2023-02-27T03:21:25;18.80;43.40
53978;DHT22;39886;47.984;-1.586;2023-02-27T03:23:54;18.80;43.30
53978;DHT22;39886;47.984;-1.586;2023-02-27T03:26:23;18.80;43.30
53978;DHT22;39886;47.984;-1.586;2023-02-27T03:29:03;18.90;43.30
53978;DHT22;39886;47.984;-1.586;2023-02-27T03:31:41;18.90;43.30
53978;DHT22;39886;47.984;-1.586;2023-02-27T03:34:28;18.80;43.20
53978;DHT22;39886;47.984;-1.586;2023-02-27T03:37:03;18.80;43.20
53978;DHT22;39886;47.984;-1.586;2023-02-27T03:42:13;18.90;43.30
53978;DHT22;39886;47.984;-1.586;2023-02-27T03:44:59;18.90;43.20
53978;DHT22;39886;47.984;-1.586;2023-02-27T03:47:27;18.90;43.30
53978;DHT22;39886;47.984;-1.586;2023-02-27T03:49:53;18.90;43.20
53978;DHT22;39886;47.984;-1.586;2023-02-27T03:52:21;18.90;43.30
53978;DHT22;39886;47.984;-1.586;2023-02-27T03:55:20;18.90;43.20
53978;DHT22;39886;47.984;-1.586;2023-02-27T03:57:48;18.80;43.20
53978;DHT22;39886;47.984;-1.586;2023-02-27T04:00:19;18.80;43.20
53978;DHT22;39886;47.984;-1.586;2023-02-27T04:02:46;18.90;43.20
53978;DHT22;39886;47.984;-1.586;2023-02-27T04:05:15;18.90;43.20
53978;DHT22;39886;47.984;-1.586;2023-02-27T04:21:47;18.80;43.20
53978;DHT22;39886;47.984;-1.586;2023-02-27T04:30:39;18.90;43.10
53978;DHT22;39886;47.984;-1.586;2023-02-27T04:33:41;18.90;43.20
53978;DHT22;39886;47.984;-1.586;2023-02-27T04:39:08;18.80;43.10
53978;DHT22;39886;47.984;-1.586;2023-02-27T04:44:09;18.90;43.10
53978;DHT22;39886;47.984;-1.586;2023-02-27T04:46:39;18.80;43.10
53978;DHT22;39886;47.984;-1.586;2023-02-27T04:49:31;18.80;43.00
53978;DHT22;39886;47.984;-1.586;2023-02-27T04:52:06;18.80;43.00
53978;DHT22;39886;47.984;-1.586;2023-02-27T04:54:49;18.90;43.10
53978;DHT22;39886;47.984;-1.586;2023-02-27T04:57:22;18.80;43.10
53978;DHT22;39886;47.984;-1.586;2023-02-27T04:59:52;18.90;43.10
53978;DHT22;39886;47.984;-1.586;2023-02-27T05:02:32;18.80;43.00
53978;DHT22;39886;47.984;-1.586;2023-02-27T05:05:03;18.90;43.10
53978;DHT22;39886;47.984;-1.586;2023-02-27T05:07:36;18.90;43.10
53978;DHT22;39886;47.984;-1.586;2023-02-27T05:10:16;18.90;43.10
53978;DHT22;39886;47.984;-1.586;2023-02-27T05:13:10;18.80;42.90
53978;DHT22;39886;47.984;-1.586;2023-02-27T05:15:50;18.90;43.10
53978;DHT22;39886;47.984;-1.586;2023-02-27T05:18:19;18.90;43.00
53978;DHT22;39886;47.984;-1.586;2023-02-27T05:30:04;18.80;42.90
53978;DHT22;39886;47.984;-1.586;2023-02-27T05:35:48;18.90;43.10
53978;DHT22;39886;47.984;-1.586;2023-02-27T05:38:21;18.90;43.00
53978;DHT22;39886;47.984;-1.586;2023-02-27T05:41:02;18.90;43.00
53978;DHT22;39886;47.984;-1.586;2023-02-27T05:44:05;18.90;43.00
53978;DHT22;39886;47.984;-1.586;2023-02-27T05:46:36;18.90;43.00
53978;DHT22;39886;47.984;-1.586;2023-02-27T05:49:22;18.90;43.00
53978;DHT22;39886;47.984;-1.586;2023-02-27T05:51:51;18.90;43.00
53978;DHT22;39886;47.984;-1.586;2023-02-27T05:56:55;18.90;43.00
53978;DHT22;39886;47.984;-1.586;2023-02-27T05:59:39;18.80;42.90
53978;DHT22;39886;47.984;-1.586;2023-02-27T06:02:10;18.80;42.90
53978;DHT22;39886;47.984;-1.586;2023-02-27T06:04:37;18.80;42.90
53978;DHT22;39886;47.984;-1.586;2023-02-27T06:07:03;18.90;42.90
53978;DHT22;39886;47.984;-1.586;2023-02-27T06:09:30;18.90;42.90
53978;DHT22;39886;47.984;-1.586;2023-02-27T06:11:57;18.90;42.90
53978;DHT22;39886;47.984;-1.586;2023-02-27T06:14:24;18.80;42.90
53978;DHT22;39886;47.984;-1.586;2023-02-27T06:16:50;18.80;42.90
53978;DHT22;39886;47.984;-1.586;2023-02-27T06:19:16;18.90;42.90
53978;DHT22;39886;47.984;-1.586;2023-02-27T06:21:41;18.80;42.80
53978;DHT22;39886;47.984;-1.586;2023-02-27T06:24:07;18.90;42.90
53978;DHT22;39886;47.984;-1.586;2023-02-27T06:26:33;18.90;42.90
53978;DHT22;39886;47.984;-1.586;2023-02-27T06:28:58;18.80;42.90
53978;DHT22;39886;47.984;-1.586;2023-02-27T06:31:24;18.90;42.90
53978;DHT22;39886;47.984;-1.586;2023-02-27T06:33:50;18.80;42.90
53978;DHT22;39886;47.984;-1.586;2023-02-27T06:36:16;18.90;42.90
53978;DHT22;39886;47.984;-1.586;2023-02-27T06:38:42;18.90;42.90
53978;DHT22;39886;47.984;-1.586;2023-02-27T06:41:08;18.90;42.90
53978;DHT22;39886;47.984;-1.586;2023-02-27T06:43:33;18.90;42.90
53978;DHT22;39886;47.984;-1.586;2023-02-27T06:46:01;18.80;42.80
53978;DHT22;39886;47.984;-1.586;2023-02-27T06:48:27;18.90;42.90
53978;DHT22;39886;47.984;-1.586;2023-02-27T06:50:55;18.90;42.90
53978;DHT22;39886;47.984;-1.586;2023-02-27T06:53:21;18.80;42.80
53978;DHT22;39886;47.984;-1.586;2023-02-27T06:55:47;18.90;42.90
53978;DHT22;39886;47.984;-1.586;2023-02-27T06:58:14;18.90;42.90
53978;DHT22;39886;47.984;-1.586;2023-02-27T07:00:40;18.90;42.90
53978;DHT22;39886;47.984;-1.586;2023-02-27T07:03:06;18.90;42.90
53978;DHT22;39886;47.984;-1.586;2023-02-27T07:05:32;18.90;42.80
53978;DHT22;39886;47.984;-1.586;2023-02-27T07:07:58;18.90;42.90
53978;DHT22;39886;47.984;-1.586;2023-02-27T07:10:24;18.90;42.90
53978;DHT22;39886;47.984;-1.586;2023-02-27T07:12:49;18.90;42.80
53978;DHT22;39886;47.984;-1.586;2023-02-27T07:15:15;18.90;42.80
53978;DHT22;39886;47.984;-1.586;2023-02-27T07:17:41;18.90;42.80
53978;DHT22;39886;47.984;-1.586;2023-02-27T07:20:08;18.90;42.80
53978;DHT22;39886;47.984;-1.586;2023-02-27T07:22:35;18.90;42.90
53978;DHT22;39886;47.984;-1.586;2023-02-27T07:25:02;19.00;42.90
53978;DHT22;39886;47.984;-1.586;2023-02-27T07:27:27;19.00;42.90
53978;DHT22;39886;47.984;-1.586;2023-02-27T07:29:53;19.00;43.10
53978;DHT22;39886;47.984;-1.586;2023-02-27T07:32:19;19.00;43.20
53978;DHT22;39886;47.984;-1.586;2023-02-27T07:34:45;19.00;43.20
53978;DHT22;39886;47.984;-1.586;2023-02-27T07:37:10;19.00;43.20
53978;DHT22;39886;47.984;-1.586;2023-02-27T07:39:36;19.00;43.30
53978;DHT22;39886;47.984;-1.586;2023-02-27T07:42:02;19.00;43.30
53978;DHT22;39886;47.984;-1.586;2023-02-27T07:44:28;19.00;43.30
53978;DHT22;39886;47.984;-1.586;2023-02-27T07:46:53;19.00;43.40
53978;DHT22;39886;47.984;-1.586;2023-02-27T07:49:19;19.00;43.50
53978;DHT22;39886;47.984;-1.586;2023-02-27T07:51:45;19.10;43.50
53978;DHT22;39886;47.984;-1.586;2023-02-27T07:54:10;19.10;43.60
53978;DHT22;39886;47.984;-1.586;2023-02-27T07:56:36;19.10;43.60
53978;DHT22;39886;47.984;-1.586;2023-02-27T07:59:02;19.10;43.60
53978;DHT22;39886;47.984;-1.586;2023-02-27T08:01:28;19.10;43.80
53978;DHT22;39886;47.984;-1.586;2023-02-27T08:03:54;19.20;43.60
53978;DHT22;39886;47.984;-1.586;2023-02-27T08:06:21;19.20;43.70
53978;DHT22;39886;47.984;-1.586;2023-02-27T08:08:48;19.20;43.80
53978;DHT22;39886;47.984;-1.586;2023-02-27T08:11:14;19.20;43.90
53978;DHT22;39886;47.984;-1.586;2023-02-27T08:13:40;19.20;44.00
53978;DHT22;39886;47.984;-1.586;2023-02-27T08:16:06;19.20;44.00
53978;DHT22;39886;47.984;-1.586;2023-02-27T08:18:32;19.20;44.00
53978;DHT22;39886;47.984;-1.586;2023-02-27T08:20:58;19.30;44.20
53978;DHT22;39886;47.984;-1.586;2023-02-27T08:23:24;19.30;44.30
53978;DHT22;39886;47.984;-1.586;2023-02-27T08:25:50;19.30;44.20
53978;DHT22;39886;47.984;-1.586;2023-02-27T08:28:15;19.30;44.60
53978;DHT22;39886;47.984;-1.586;2023-02-27T08:30:43;19.30;44.60
53978;DHT22;39886;47.984;-1.586;2023-02-27T08:33:09;19.30;44.60
53978;DHT22;39886;47.984;-1.586;2023-02-27T08:35:35;19.40;45.20
53978;DHT22;39886;47.984;-1.586;2023-02-27T08:38:01;19.40;44.80
53978;DHT22;39886;47.984;-1.586;2023-02-27T08:40:26;19.50;45.90
53978;DHT22;39886;47.984;-1.586;2023-02-27T08:42:52;19.50;45.70
53978;DHT22;39886;47.984;-1.586;2023-02-27T08:45:18;19.50;45.80
53978;DHT22;39886;47.984;-1.586;2023-02-27T08:47:44;19.50;46.00
53978;DHT22;39886;47.984;-1.586;2023-02-27T08:50:10;19.50;46.10
53978;DHT22;39886;47.984;-1.586;2023-02-27T08:52:39;19.60;45.70
53978;DHT22;39886;47.984;-1.586;2023-02-27T08:55:05;19.60;45.90
53978;DHT22;39886;47.984;-1.586;2023-02-27T08:57:31;19.60;46.00
53978;DHT22;39886;47.984;-1.586;2023-02-27T08:59:57;19.70;45.90
53978;DHT22;39886;47.984;-1.586;2023-02-27T09:02:23;19.70;45.90
53978;DHT22;39886;47.984;-1.586;2023-02-27T09:04:51;19.70;46.40
53978;DHT22;39886;47.984;-1.586;2023-02-27T09:07:17;19.80;46.70
53978;DHT22;39886;47.984;-1.586;2023-02-27T09:09:43;19.80;46.40
53978;DHT22;39886;47.984;-1.586;2023-02-27T09:12:09;19.80;46.50
53978;DHT22;39886;47.984;-1.586;2023-02-27T09:14:35;19.80;46.80
53978;DHT22;39886;47.984;-1.586;2023-02-27T09:17:01;19.80;46.50
53978;DHT22;39886;47.984;-1.586;2023-02-27T09:19:27;19.90;46.50
53978;DHT22;39886;47.984;-1.586;2023-02-27T09:21:53;19.80;46.50
53978;DHT22;39886;47.984;-1.586;2023-02-27T09:24:19;19.80;46.50
53978;DHT22;39886;47.984;-1.586;2023-02-27T09:26:44;19.90;46.30
53978;DHT22;39886;47.984;-1.586;2023-02-27T09:29:10;19.90;46.50
53978;DHT22;39886;47.984;-1.586;2023-02-27T09:31:36;19.90;46.60
53978;DHT22;39886;47.984;-1.586;2023-02-27T09:34:02;19.90;46.40
53978;DHT22;39886;47.984;-1.586;2023-02-27T09:36:28;20.00;46.40
53978;DHT22;39886;47.984;-1.586;2023-02-27T09:38:53;20.00;46.50
53978;DHT22;39886;47.984;-1.586;2023-02-27T09:43:53;20.00;46.60
53978;DHT22;39886;47.984;-1.586;2023-02-27T09:46:21;20.00;46.60
53978;DHT22;39886;47.984;-1.586;2023-02-27T09:48:55;20.10;46.30
53978;DHT22;39886;47.984;-1.586;2023-02-27T09:51:22;20.10;46.70
53978;DHT22;39886;47.984;-1.586;2023-02-27T09:53:51;20.00;46.40
53978;DHT22;39886;47.984;-1.586;2023-02-27T09:59:44;20.10;46.40
53978;DHT22;39886;47.984;-1.586;2023-02-27T10:02:46;20.10;46.80
53978;DHT22;39886;47.984;-1.586;2023-02-27T10:10:54;20.10;46.80
53978;DHT22;39886;47.984;-1.586;2023-02-27T10:16:14;20.20;46.70
53978;DHT22;39886;47.984;-1.586;2023-02-27T10:18:55;20.20;46.30
53978;DHT22;39886;47.984;-1.586;2023-02-27T10:21:43;20.20;46.90
53978;DHT22;39886;47.984;-1.586;2023-02-27T10:24:31;20.20;46.90
53978;DHT22;39886;47.984;-1.586;2023-02-27T10:27:00;20.20;46.90
53978;DHT22;39886;47.984;-1.586;2023-02-27T10:29:31;20.30;46.80
53978;DHT22;39886;47.984;-1.586;2023-02-27T10:32:04;20.30;46.70
53978;DHT22;39886;47.984;-1.586;2023-02-27T10:34:32;20.30;46.60
53978;DHT22;39886;47.984;-1.586;2023-02-27T10:37:01;20.30;46.80
53978;DHT22;39886;47.984;-1.586;2023-02-27T10:39:29;20.40;46.90
53978;DHT22;39886;47.984;-1.586;2023-02-27T10:42:04;20.40;46.80
53978;DHT22;39886;47.984;-1.586;2023-02-27T10:44:31;20.40;46.80
53978;DHT22;39886;47.984;-1.586;2023-02-27T10:46:57;20.50;46.80
53978;DHT22;39886;47.984;-1.586;2023-02-27T10:49:23;20.50;46.90
53978;DHT22;39886;47.984;-1.586;2023-02-27T10:52:13;20.50;46.80
53978;DHT22;39886;47.984;-1.586;2023-02-27T10:54:40;20.60;46.80
53978;DHT22;39886;47.984;-1.586;2023-02-27T10:57:28;20.60;47.00
53978;DHT22;39886;47.984;-1.586;2023-02-27T11:00:03;20.60;47.10
53978;DHT22;39886;47.984;-1.586;2023-02-27T11:02:40;20.60;47.10
53978;DHT22;39886;47.984;-1.586;2023-02-27T11:05:21;20.70;47.10
53978;DHT22;39886;47.984;-1.586;2023-02-27T11:07:48;20.70;46.80
53978;DHT22;39886;47.984;-1.586;2023-02-27T11:10:18;20.80;47.40
53978;DHT22;39886;47.984;-1.586;2023-02-27T11:13:04;20.80;46.70
53978;DHT22;39886;47.984;-1.586;2023-02-27T11:15:35;20.80;47.00
53978;DHT22;39886;47.984;-1.586;2023-02-27T11:18:29;20.90;47.00
53978;DHT22;39886;47.984;-1.586;2023-02-27T11:21:16;20.90;46.80
53978;DHT22;39886;47.984;-1.586;2023-02-27T11:24:17;20.90;46.80
53978;DHT22;39886;47.984;-1.586;2023-02-27T11:26:56;21.00;46.80
53978;DHT22;39886;47.984;-1.586;2023-02-27T11:29:22;21.00;46.70
53978;DHT22;39886;47.984;-1.586;2023-02-27T11:31:52;21.00;46.70
53978;DHT22;39886;47.984;-1.586;2023-02-27T11:34:33;21.10;46.70
53978;DHT22;39886;47.984;-1.586;2023-02-27T11:37:23;21.10;46.60
53978;DHT22;39886;47.984;-1.586;2023-02-27T11:40:26;21.20;46.10
53978;DHT22;39886;47.984;-1.586;2023-02-27T11:42:54;21.20;46.10
53978;DHT22;39886;47.984;-1.586;2023-02-27T11:47:53;21.20;45.50
53978;DHT22;39886;47.984;-1.586;2023-02-27T11:53:16;21.20;45.50
53978;DHT22;39886;47.984;-1.586;2023-02-27T11:55:46;21.20;45.40
53978;DHT22;39886;47.984;-1.586;2023-02-27T11:58:17;21.30;45.30
53978;DHT22;39886;47.984;-1.586;2023-02-27T12:01:05;21.30;45.40
53978;DHT22;39886;47.984;-1.586;2023-02-27T12:06:56;21.30;45.20
53978;DHT22;39886;47.984;-1.586;2023-02-27T12:11:51;21.30;45.10
53978;DHT22;39886;47.984;-1.586;2023-02-27T12:14:30;21.40;45.10
53978;DHT22;39886;47.984;-1.586;2023-02-27T12:17:12;21.40;44.90
53978;DHT22;39886;47.984;-1.586;2023-02-27T12:20:10;21.40;44.80
53978;DHT22;39886;47.984;-1.586;2023-02-27T12:22:45;21.40;44.70
53978;DHT22;39886;47.984;-1.586;2023-02-27T12:28:05;21.50;44.50
53978;DHT22;39886;47.984;-1.586;2023-02-27T12:30:39;21.50;44.30
53978;DHT22;39886;47.984;-1.586;2023-02-27T12:33:20;21.60;44.10
53978;DHT22;39886;47.984;-1.586;2023-02-27T12:35:54;21.60;44.10
53978;DHT22;39886;47.984;-1.586;2023-02-27T12:38:23;21.60;43.90
53978;DHT22;39886;47.984;-1.586;2023-02-27T12:43:48;21.70;43.90
53978;DHT22;39886;47.984;-1.586;2023-02-27T12:49:21;21.80;43.90
53978;DHT22;39886;47.984;-1.586;2023-02-27T12:51:57;21.80;44.10
53978;DHT22;39886;47.984;-1.586;2023-02-27T13:00:20;22.00;43.80
53978;DHT22;39886;47.984;-1.586;2023-02-27T13:08:08;22.10;43.80
53978;DHT22;39886;47.984;-1.586;2023-02-27T13:13:34;22.30;43.80
53978;DHT22;39886;47.984;-1.586;2023-02-27T13:18:39;22.30;43.80
53978;DHT22;39886;47.984;-1.586;2023-02-27T13:21:24;22.40;43.90
53978;DHT22;39886;47.984;-1.586;2023-02-27T13:27:00;22.50;44.00
53978;DHT22;39886;47.984;-1.586;2023-02-27T13:29:43;22.50;44.10
53978;DHT22;39886;47.984;-1.586;2023-02-27T13:32:28;22.50;44.20
53978;DHT22;39886;47.984;-1.586;2023-02-27T13:37:50;22.50;44.60
53978;DHT22;39886;47.984;-1.586;2023-02-27T13:40:39;22.40;44.90
53978;DHT22;39886;47.984;-1.586;2023-02-27T13:43:28;22.30;45.10
53978;DHT22;39886;47.984;-1.586;2023-02-27T13:45:59;22.20;45.30
53978;DHT22;39886;47.984;-1.586;2023-02-27T13:48:36;22.20;45.30
53978;DHT22;39886;47.984;-1.586;2023-02-27T13:51:06;22.20;45.40
53978;DHT22;39886;47.984;-1.586;2023-02-27T13:53:32;22.10;45.50
53978;DHT22;39886;47.984;-1.586;2023-02-27T13:56:18;22.10;45.70
53978;DHT22;39886;47.984;-1.586;2023-02-27T13:58:45;22.10;46.00
53978;DHT22;39886;47.984;-1.586;2023-02-27T14:01:24;22.00;46.00
53978;DHT22;39886;47.984;-1.586;2023-02-27T14:03:55;22.00;46.30
53978;DHT22;39886;47.984;-1.586;2023-02-27T14:06:25;22.00;45.80
53978;DHT22;39886;47.984;-1.586;2023-02-27T14:08:52;22.00;45.60
53978;DHT22;39886;47.984;-1.586;2023-02-27T14:11:29;22.00;45.30
53978;DHT22;39886;47.984;-1.586;2023-02-27T14:14:08;21.90;45.20
53978;DHT22;39886;47.984;-1.586;2023-02-27T14:16:51;21.80;45.20
53978;DHT22;39886;47.984;-1.586;2023-02-27T14:27:46;21.80;45.60
53978;DHT22;39886;47.984;-1.586;2023-02-27T14:32:59;21.80;45.90
53978;DHT22;39886;47.984;-1.586;2023-02-27T14:35:27;21.80;45.90
53978;DHT22;39886;47.984;-1.586;2023-02-27T14:37:53;21.80;45.90
53978;DHT22;39886;47.984;-1.586;2023-02-27T14:40:28;21.80;45.90
53978;DHT22;39886;47.984;-1.586;2023-02-27T14:45:30;21.70;46.10
53978;DHT22;39886;47.984;-1.586;2023-02-27T14:47:56;21.80;46.00
53978;DHT22;39886;47.984;-1.586;2023-02-27T14:50:26;21.80;45.90
53978;DHT22;39886;47.984;-1.586;2023-02-27T14:52:52;21.80;45.80
53978;DHT22;39886;47.984;-1.586;2023-02-27T14:55:27;22.00;45.70
53978;DHT22;39886;47.984;-1.586;2023-02-27T14:58:15;22.00;45.60
53978;DHT22;39886;47.984;-1.586;2023-02-27T15:00:43;22.10;45.30
53978;DHT22;39886;47.984;-1.586;2023-02-27T15:03:22;22.20;45.20
53978;DHT22;39886;47.984;-1.586;2023-02-27T15:05:51;22.20;45.20
53978;DHT22;39886;47.984;-1.586;2023-02-27T15:08:22;22.20;44.90
53978;DHT22;39886;47.984;-1.586;2023-02-27T15:10:53;22.30;45.20
53978;DHT22;39886;47.984;-1.586;2023-02-27T15:13:35;22.30;44.60
53978;DHT22;39886;47.984;-1.586;2023-02-27T15:18:53;22.40;44.60
53978;DHT22;39886;47.984;-1.586;2023-02-27T15:21:21;22.40;44.60
53978;DHT22;39886;47.984;-1.586;2023-02-27T15:23:56;22.50;44.60
53978;DHT22;39886;47.984;-1.586;2023-02-27T15:26:22;22.50;44.70
53978;DHT22;39886;47.984;-1.586;2023-02-27T15:28:49;22.50;44.50
53978;DHT22;39886;47.984;-1.586;2023-02-27T15:31:20;22.50;44.70
53978;DHT22;39886;47.984;-1.586;2023-02-27T15:33:47;22.50;44.70
53978;DHT22;39886;47.984;-1.586;2023-02-27T15:36:23;22.50;44.80
53978;DHT22;39886;47.984;-1.586;2023-02-27T15:39:11;22.50;44.70
53978;DHT22;39886;47.984;-1.586;2023-02-27T15:41:46;22.50;44.90
53978;DHT22;39886;47.984;-1.586;2023-02-27T15:44:17;22.50;45.00
53978;DHT22;39886;47.984;-1.586;2023-02-27T15:46:45;22.40;44.80
53978;DHT22;39886;47.984;-1.586;2023-02-27T15:49:17;22.50;44.90
53978;DHT22;39886;47.984;-1.586;2023-02-27T15:51:45;22.50;45.10
53978;DHT22;39886;47.984;-1.586;2023-02-27T15:54:12;22.40;44.50
53978;DHT22;39886;47.984;-1.586;2023-02-27T15:56:39;22.50;44.80
53978;DHT22;39886;47.984;-1.586;2023-02-27T15:59:05;22.40;45.00
53978;DHT22;39886;47.984;-1.586;2023-02-27T16:01:32;22.40;44.90
53978;DHT22;39886;47.984;-1.586;2023-02-27T16:04:02;22.50;44.90
53978;DHT22;39886;47.984;-1.586;2023-02-27T16:06:39;22.50;44.80
53978;DHT22;39886;47.984;-1.586;2023-02-27T16:09:19;22.40;45.10
53978;DHT22;39886;47.984;-1.586;2023-02-27T16:11:46;22.40;44.70
53978;DHT22;39886;47.984;-1.586;2023-02-27T16:14:40;22.40;45.40
53978;DHT22;39886;47.984;-1.586;2023-02-27T16:17:32;22.30;45.20
53978;DHT22;39886;47.984;-1.586;2023-02-27T16:19:59;22.30;45.30
53978;DHT22;39886;47.984;-1.586;2023-02-27T16:22:26;22.30;45.10
53978;DHT22;39886;47.984;-1.586;2023-02-27T16:24:52;22.30;45.20
53978;DHT22;39886;47.984;-1.586;2023-02-27T16:27:25;22.30;45.00
53978;DHT22;39886;47.984;-1.586;2023-02-27T16:29:56;22.30;45.00
53978;DHT22;39886;47.984;-1.586;2023-02-27T16:32:29;22.30;45.10
53978;DHT22;39886;47.984;-1.586;2023-02-27T16:35:26;22.30;45.20
53978;DHT22;39886;47.984;-1.586;2023-02-27T16:37:53;22.30;45.10
53978;DHT22;39886;47.984;-1.586;2023-02-27T16:40:25;22.20;45.10
53978;DHT22;39886;47.984;-1.586;2023-02-27T16:42:51;22.20;44.90
53978;DHT22;39886;47.984;-1.586;2023-02-27T16:45:19;22.20;45.10
53978;DHT22;39886;47.984;-1.586;2023-02-27T16:47:51;22.20;45.10
53978;DHT22;39886;47.984;-1.586;2023-02-27T16:50:36;22.20;45.30
53978;DHT22;39886;47.984;-1.586;2023-02-27T16:53:03;22.20;45.50
53978;DHT22;39886;47.984;-1.586;2023-02-27T16:55:30;22.10;46.20
53978;DHT22;39886;47.984;-1.586;2023-02-27T16:57:56;22.10;45.60
53978;DHT22;39886;47.984;-1.586;2023-02-27T17:00:22;22.10;45.40
53978;DHT22;39886;47.984;-1.586;2023-02-27T17:02:47;22.10;45.30
53978;DHT22;39886;47.984;-1.586;2023-02-27T17:05:13;22.10;45.50
53978;DHT22;39886;47.984;-1.586;2023-02-27T17:07:40;22.10;45.50
53978;DHT22;39886;47.984;-1.586;2023-02-27T17:10:07;22.10;45.70
53978;DHT22;39886;47.984;-1.586;2023-02-27T17:12:33;22.00;45.60
53978;DHT22;39886;47.984;-1.586;2023-02-27T17:14:58;22.00;45.60
53978;DHT22;39886;47.984;-1.586;2023-02-27T17:17:24;22.00;45.50
53978;DHT22;39886;47.984;-1.586;2023-02-27T17:19:53;22.00;45.70
53978;DHT22;39886;47.984;-1.586;2023-02-27T17:22:19;22.00;45.70
53978;DHT22;39886;47.984;-1.586;2023-02-27T17:24:45;22.00;45.40
53978;DHT22;39886;47.984;-1.586;2023-02-27T17:27:10;22.00;45.10
53978;DHT22;39886;47.984;-1.586;2023-02-27T17:29:37;22.00;45.50
53978;DHT22;39886;47.984;-1.586;2023-02-27T17:32:03;22.00;45.60
53978;DHT22;39886;47.984;-1.586;2023-02-27T17:34:29;22.00;45.60
53978;DHT22;39886;47.984;-1.586;2023-02-27T17:36:55;21.90;45.80
53978;DHT22;39886;47.984;-1.586;2023-02-27T17:39:21;21.80;45.90
53978;DHT22;39886;47.984;-1.586;2023-02-27T17:41:46;21.60;46.10
53978;DHT22;39886;47.984;-1.586;2023-02-27T17:44:12;21.50;46.20
53978;DHT22;39886;47.984;-1.586;2023-02-27T17:46:39;21.40;46.30
53978;DHT22;39886;47.984;-1.586;2023-02-27T17:49:05;21.30;46.50
53978;DHT22;39886;47.984;-1.586;2023-02-27T17:51:32;21.20;46.70
53978;DHT22;39886;47.984;-1.586;2023-02-27T17:54:02;21.10;46.80
53978;DHT22;39886;47.984;-1.586;2023-02-27T17:56:28;21.10;46.90
53978;DHT22;39886;47.984;-1.586;2023-02-27T17:58:54;21.00;46.90
53978;DHT22;39886;47.984;-1.586;2023-02-27T18:01:21;20.90;46.90